sensor_id;sensor_type;location;lat;lon;timestamp;pressure;altitude;pressure_sealevel;temperature;humidity
28628;BME280;15815;46.760;19.604;2023-05-29T00:01:53;100228.06;;;17.25;77.90
28628;BME280;15815;46.760;19.604;2023-05-29T00:04:19;100235.00;;;17.24;79.91
28628;BME280;15815;46.760;19.604;2023-05-29T00:06:45;100223.75;;;17.20;78.08
28628;BME280;15815;46.760;19.604;2023-05-29T00:09:10;100205.69;;;17.14;78.08
28628;BME280;15815;46.760;19.604;2023-05-29T00:11:36;100199.53;;;17.16;77.57
28628;BME280;15815;46.760;19.604;2023-05-29T00:14:02;100208.06;;;17.16;77.48
28628;BME280;15815;46.760;19.604;2023-05-29T00:16:27;100208.84;;;17.16;78.18
28628;BME280;15815;46.760;19.604;2023-05-29T00:18:53;100199.75;;;17.09;78.13
28628;BME280;15815;46.760;19.604;2023-05-29T00:21:18;100197.59;;;17.00;78.89
28628;BME280;15815;46.760;19.604;2023-05-29T00:23:44;100191.47;;;17.02;78.95
28628;BME280;15815;46.760;19.604;2023-05-29T00:26:10;100216.34;;;17.10;78.58
28628;BME280;15815;46.760;19.604;2023-05-29T00:28:36;100186.25;;;17.00;78.33
28628;BME280;15815;46.760;19.604;2023-05-29T00:31:02;100197.59;;;17.13;77.81
28628;BME280;15815;46.760;19.604;2023-05-29T00:33:27;100192.16;;;17.06;78.27
28628;BME280;15815;46.760;19.604;2023-05-29T00:35:53;100191.47;;;17.02;79.61
28628;BME280;15815;46.760;19.604;2023-05-29T00:38:19;100202.38;;;17.16;77.61
28628;BME280;15815;46.760;19.604;2023-05-29T00:40:44;100211.91;;;17.22;77.81
28628;BME280;15815;46.760;19.604;2023-05-29T00:43:10;100188.84;;;17.07;77.88
28628;BME280;15815;46.760;19.604;2023-05-29T00:45:36;100193.19;;;17.12;78.42
28628;BME280;15815;46.760;19.604;2023-05-29T00:48:08;100197.03;;;17.18;78.90
28628;BME280;15815;46.760;19.604;2023-05-29T00:50:34;100195.00;;;17.18;78.01
28628;BME280;15815;46.760;19.604;2023-05-29T00:53:00;100201.81;;;17.21;78.20
28628;BME280;15815;46.760;19.604;2023-05-29T00:55:28;100188.63;;;17.14;78.17
28628;BME280;15815;46.760;19.604;2023-05-29T00:57:54;100199.78;;;17.21;78.02
28628;BME280;15815;46.760;19.604;2023-05-29T01:00:20;100198.06;;;17.24;78.80
28628;BME280;15815;46.760;19.604;2023-05-29T01:02:46;100195.22;;;17.24;78.20
28628;BME280;15815;46.760;19.604;2023-05-29T01:05:12;100182.16;;;17.14;78.65
28628;BME280;15815;46.760;19.604;2023-05-29T01:07:38;100194.88;;;17.22;78.65
28628;BME280;15815;46.760;19.604;2023-05-29T01:10:06;100192.50;;;17.20;79.77
28628;BME280;15815;46.760;19.604;2023-05-29T01:12:55;100202.28;;;17.32;80.02
28628;BME280;15815;46.760;19.604;2023-05-29T01:15:32;100197.97;;;17.27;79.48
28628;BME280;15815;46.760;19.604;2023-05-29T01:18:19;100199.09;;;17.30;79.77
28628;BME280;15815;46.760;19.604;2023-05-29T01:20:54;100194.34;;;17.27;79.30
28628;BME280;15815;46.760;19.604;2023-05-29T01:28:31;100184.44;;;17.19;79.28
28628;BME280;15815;46.760;19.604;2023-05-29T01:31:00;100194.88;;;17.22;79.68
28628;BME280;15815;46.760;19.604;2023-05-29T01:33:27;100181.94;;;17.21;78.59
28628;BME280;15815;46.760;19.604;2023-05-29T01:35:53;100176.25;;;17.21;78.36
28628;BME280;15815;46.760;19.604;2023-05-29T01:38:19;100173.06;;;17.19;78.64
28628;BME280;15815;46.760;19.604;2023-05-29T01:40:45;100174.09;;;17.12;79.18
28628;BME280;15815;46.760;19.604;2023-05-29T01:43:13;100191.59;;;17.23;78.74
28628;BME280;15815;46.760;19.604;2023-05-29T01:45:39;100174.09;;;17.12;79.23
28628;BME280;15815;46.760;19.604;2023-05-29T01:48:06;100179.19;;;17.17;79.42
28628;BME280;15815;46.760;19.604;2023-05-29T01:50:33;100160.47;;;17.07;79.23
28628;BME280;15815;46.760;19.604;2023-05-29T01:52:59;100169.53;;;17.15;79.67
28628;BME280;15815;46.760;19.604;2023-05-29T01:55:25;100162.16;;;17.05;79.83
28628;BME280;15815;46.760;19.604;2023-05-29T01:57:52;100157.41;;;17.02;79.62
28628;BME280;15815;46.760;19.604;2023-05-29T02:00:19;100151.59;;;17.05;79.14
28628;BME280;15815;46.760;19.604;2023-05-29T02:02:45;100149.06;;;16.94;79.61
28628;BME280;15815;46.760;19.604;2023-05-29T02:05:10;100156.94;;;17.03;79.29
28628;BME280;15815;46.760;19.604;2023-05-29T02:07:37;100156.94;;;17.03;78.55
28628;BME280;15815;46.760;19.604;2023-05-29T02:10:04;100160.25;;;17.02;79.02
28628;BME280;15815;46.760;19.604;2023-05-29T02:12:30;100155.09;;;16.96;79.19
28628;BME280;15815;46.760;19.604;2023-05-29T02:14:55;100177.34;;;16.98;79.37
28628;BME280;15815;46.760;19.604;2023-05-29T02:17:21;100159.53;;;16.85;79.59
28628;BME280;15815;46.760;19.604;2023-05-29T02:19:47;100166.00;;;16.85;80.38
28628;BME280;15815;46.760;19.604;2023-05-29T02:22:13;100162.22;;;16.76;80.90
28628;BME280;15815;46.760;19.604;2023-05-29T02:24:39;100161.22;;;16.82;80.88
28628;BME280;15815;46.760;19.604;2023-05-29T02:27:06;100141.75;;;16.68;80.73
28628;BME280;15815;46.760;19.604;2023-05-29T02:29:32;100144.00;;;16.60;81.81
28628;BME280;15815;46.760;19.604;2023-05-29T02:31:57;100150.81;;;16.63;81.18
28628;BME280;15815;46.760;19.604;2023-05-29T02:34:26;100160.75;;;16.71;81.07
28628;BME280;15815;46.760;19.604;2023-05-29T02:36:52;100164.41;;;16.84;80.90
28628;BME280;15815;46.760;19.604;2023-05-29T02:39:18;100138.94;;;16.68;81.25
28628;BME280;15815;46.760;19.604;2023-05-29T02:41:47;100148.31;;;16.65;81.68
28628;BME280;15815;46.760;19.604;2023-05-29T02:44:16;100168.72;;;16.76;81.87
28628;BME280;15815;46.760;19.604;2023-05-29T02:46:42;100160.75;;;16.71;81.97
28628;BME280;15815;46.760;19.604;2023-05-29T02:49:08;100150.81;;;16.63;82.01
28628;BME280;15815;46.760;19.604;2023-05-29T02:51:33;100158.16;;;16.77;81.89
28628;BME280;15815;46.760;19.604;2023-05-29T02:53:59;100171.09;;;16.78;82.70
28628;BME280;15815;46.760;19.604;2023-05-29T02:56:24;100168.81;;;16.73;82.50
28628;BME280;15815;46.760;19.604;2023-05-29T02:58:53;100159.25;;;16.66;82.95
28628;BME280;15815;46.760;19.604;2023-05-29T03:01:19;100163.41;;;16.62;82.41
28628;BME280;15815;46.760;19.604;2023-05-29T03:03:45;100162.16;;;16.63;82.51
28628;BME280;15815;46.760;19.604;2023-05-29T03:06:11;100158.06;;;16.51;83.04
28628;BME280;15815;46.760;19.604;2023-05-29T03:08:36;100167.59;;;16.57;83.44
28628;BME280;15815;46.760;19.604;2023-05-29T03:11:02;100157.47;;;16.44;83.34
28628;BME280;15815;46.760;19.604;2023-05-29T03:13:27;100169.19;;;16.58;82.93
28628;BME280;15815;46.760;19.604;2023-05-29T03:15:53;100164.41;;;16.55;83.18
28628;BME280;15815;46.760;19.604;2023-05-29T03:18:19;100165.44;;;16.61;83.14
28628;BME280;15815;46.760;19.604;2023-05-29T03:20:44;100159.19;;;16.54;83.14
28628;BME280;15815;46.760;19.604;2023-05-29T03:23:10;100184.34;;;16.68;82.93
28628;BME280;15815;46.760;19.604;2023-05-29T03:25:36;100159.53;;;16.56;82.99
28628;BME280;15815;46.760;19.604;2023-05-29T03:28:01;100158.06;;;16.51;83.35
28628;BME280;15815;46.760;19.604;2023-05-29T03:30:27;100165.91;;;16.60;83.42
28628;BME280;15815;46.760;19.604;2023-05-29T03:32:52;100164.75;;;16.57;83.54
28628;BME280;15815;46.760;19.604;2023-05-29T03:35:18;100159.31;;;16.63;83.32
28628;BME280;15815;46.760;19.604;2023-05-29T03:37:44;100180.06;;;16.76;83.68
28628;BME280;15815;46.760;19.604;2023-05-29T03:40:10;100185.06;;;16.85;83.33
28628;BME280;15815;46.760;19.604;2023-05-29T03:42:35;100190.28;;;16.86;82.87
28628;BME280;15815;46.760;19.604;2023-05-29T03:45:01;100193.81;;;16.90;83.74
28628;BME280;15815;46.760;19.604;2023-05-29T03:47:27;100171.88;;;16.78;83.53
28628;BME280;15815;46.760;19.604;2023-05-29T03:49:52;100184.97;;;16.88;83.86
28628;BME280;15815;46.760;19.604;2023-05-29T03:52:18;100198.81;;;16.86;84.04
28628;BME280;15815;46.760;19.604;2023-05-29T03:54:43;100195.63;;;16.84;84.31
28628;BME280;15815;46.760;19.604;2023-05-29T03:57:09;100181.09;;;16.82;84.44
28628;BME280;15815;46.760;19.604;2023-05-29T03:59:35;100193.38;;;16.92;83.78
28628;BME280;15815;46.760;19.604;2023-05-29T04:02:01;100200.97;;;16.95;84.39
28628;BME280;15815;46.760;19.604;2023-05-29T04:04:26;100198.25;;;16.91;85.15
28628;BME280;15815;46.760;19.604;2023-05-29T04:06:52;100207.09;;;16.93;85.23
28628;BME280;15815;46.760;19.604;2023-05-29T04:09:18;100197.44;;;16.91;84.78
28628;BME280;15815;46.760;19.604;2023-05-29T04:11:43;100201.97;;;16.76;86.51
28628;BME280;15815;46.760;19.604;2023-05-29T04:14:09;100212.31;;;16.82;87.19
28628;BME280;15815;46.760;19.604;2023-05-29T04:16:35;100202.41;;;16.74;87.52
28628;BME280;15815;46.760;19.604;2023-05-29T04:19:03;100225.03;;;16.90;87.41
28628;BME280;15815;46.760;19.604;2023-05-29T04:21:29;100213.91;;;16.83;88.17
28628;BME280;15815;46.760;19.604;2023-05-29T04:23:54;100207.19;;;16.77;88.10
28628;BME280;15815;46.760;19.604;2023-05-29T04:26:21;100219.59;;;16.83;88.59
28628;BME280;15815;46.760;19.604;2023-05-29T04:28:47;100207.03;;;16.68;89.16
28628;BME280;15815;46.760;19.604;2023-05-29T04:31:14;100218.19;;;16.75;89.37
28628;BME280;15815;46.760;19.604;2023-05-29T04:33:40;100205.78;;;16.69;89.52
28628;BME280;15815;46.760;19.604;2023-05-29T04:36:05;100230.81;;;16.74;90.24
28628;BME280;15815;46.760;19.604;2023-05-29T04:38:31;100219.44;;;16.74;90.46
28628;BME280;15815;46.760;19.604;2023-05-29T04:40:57;100229.13;;;16.89;89.89
28628;BME280;15815;46.760;19.604;2023-05-29T04:43:32;100229.81;;;16.93;89.78
28628;BME280;15815;46.760;19.604;2023-05-29T04:46:00;100233.59;;;17.03;89.04
28628;BME280;15815;46.760;19.604;2023-05-29T04:48:26;100227.94;;;17.03;89.30
28628;BME280;15815;46.760;19.604;2023-05-29T04:50:51;100211.09;;;16.96;89.59
28628;BME280;15815;46.760;19.604;2023-05-29T04:53:17;100239.41;;;17.12;89.04
28628;BME280;15815;46.760;19.604;2023-05-29T04:55:43;100229.38;;;16.95;90.52
28628;BME280;15815;46.760;19.604;2023-05-29T04:58:08;100245.53;;;17.11;90.42
28628;BME280;15815;46.760;19.604;2023-05-29T05:00:34;100235.09;;;17.08;90.33
28628;BME280;15815;46.760;19.604;2023-05-29T05:03:00;100253.72;;;17.09;91.58
28628;BME280;15815;46.760;19.604;2023-05-29T05:05:25;100234.50;;;17.00;91.53
28628;BME280;15815;46.760;19.604;2023-05-29T05:07:51;100235.31;;;17.01;91.62
28628;BME280;15815;46.760;19.604;2023-05-29T05:10:17;100254.06;;;17.11;92.61
28628;BME280;15815;46.760;19.604;2023-05-29T05:12:42;100235.66;;;17.03;91.82
28628;BME280;15815;46.760;19.604;2023-05-29T05:15:12;100226.91;;;17.10;91.37
28628;BME280;15815;46.760;19.604;2023-05-29T05:17:39;100247.72;;;17.19;91.72
28628;BME280;15815;46.760;19.604;2023-05-29T05:20:05;100240.53;;;17.15;92.02
28628;BME280;15815;46.760;19.604;2023-05-29T05:22:31;100253.03;;;17.17;92.00
28628;BME280;15815;46.760;19.604;2023-05-29T05:24:57;100262.03;;;17.16;92.72
28628;BME280;15815;46.760;19.604;2023-05-29T05:27:22;100263.03;;;17.22;92.60
28628;BME280;15815;46.760;19.604;2023-05-29T05:29:51;100244.63;;;17.14;92.62
28628;BME280;15815;46.760;19.604;2023-05-29T05:32:16;100254.28;;;17.16;92.47
28628;BME280;15815;46.760;19.604;2023-05-29T05:34:42;100255.53;;;17.15;93.30
28628;BME280;15815;46.760;19.604;2023-05-29T05:37:07;100271.59;;;17.35;92.77
28628;BME280;15815;46.760;19.604;2023-05-29T05:39:33;100278.78;;;17.39;93.06
28628;BME280;15815;46.760;19.604;2023-05-29T05:41:59;100274.91;;;17.33;92.81
28628;BME280;15815;46.760;19.604;2023-05-29T05:44:25;100262.63;;;17.36;92.32
28628;BME280;15815;46.760;19.604;2023-05-29T05:46:50;100267.19;;;17.46;91.77
28628;BME280;15815;46.760;19.604;2023-05-29T05:49:16;100283.56;;;17.55;92.38
28628;BME280;15815;46.760;19.604;2023-05-29T05:51:42;100259.00;;;17.48;91.61
28628;BME280;15815;46.760;19.604;2023-05-29T05:54:07;100278.34;;;17.66;91.15
28628;BME280;15815;46.760;19.604;2023-05-29T05:56:33;100283.03;;;17.73;91.36
28628;BME280;15815;46.760;19.604;2023-05-29T05:58:59;100272.56;;;17.70;90.90
28628;BME280;15815;46.760;19.604;2023-05-29T06:01:25;100292.22;;;17.77;91.80
28628;BME280;15815;46.760;19.604;2023-05-29T06:03:50;100286.34;;;17.84;90.89
28628;BME280;15815;46.760;19.604;2023-05-29T06:06:16;100286.22;;;17.87;90.88
28628;BME280;15815;46.760;19.604;2023-05-29T06:08:42;100294.63;;;17.91;91.28
28628;BME280;15815;46.760;19.604;2023-05-29T06:11:07;100292.22;;;18.02;90.58
28628;BME280;15815;46.760;19.604;2023-05-29T06:13:33;100267.88;;;18.01;90.69
28628;BME280;15815;46.760;19.604;2023-05-29T06:15:59;100287.91;;;18.10;90.98
28628;BME280;15815;46.760;19.604;2023-05-29T06:18:25;100291.31;;;18.18;90.77
28628;BME280;15815;46.760;19.604;2023-05-29T06:20:50;100288.78;;;18.20;90.90
28628;BME280;15815;46.760;19.604;2023-05-29T06:23:17;100276.59;;;18.32;89.89
28628;BME280;15815;46.760;19.604;2023-05-29T06:25:44;100262.69;;;18.34;89.60
28628;BME280;15815;46.760;19.604;2023-05-29T06:28:10;100293.59;;;18.58;89.40
28628;BME280;15815;46.760;19.604;2023-05-29T06:30:35;100281.66;;;18.50;89.47
28628;BME280;15815;46.760;19.604;2023-05-29T06:33:01;100288.50;;;18.52;89.13
28628;BME280;15815;46.760;19.604;2023-05-29T06:35:27;100299.16;;;18.61;89.09
28628;BME280;15815;46.760;19.604;2023-05-29T06:37:53;100295.66;;;18.70;88.87
28628;BME280;15815;46.760;19.604;2023-05-29T06:40:19;100298.38;;;18.73;88.70
28628;BME280;15815;46.760;19.604;2023-05-29T06:42:45;100286.97;;;18.73;88.59
28628;BME280;15815;46.760;19.604;2023-05-29T06:45:11;100298.53;;;18.92;88.19
28628;BME280;15815;46.760;19.604;2023-05-29T06:47:37;100293.16;;;18.94;88.09
28628;BME280;15815;46.760;19.604;2023-05-29T06:50:03;100293.41;;;19.08;87.98
28628;BME280;15815;46.760;19.604;2023-05-29T06:52:28;100286.66;;;19.15;87.03
28628;BME280;15815;46.760;19.604;2023-05-29T06:54:54;100279.91;;;19.22;87.14
28628;BME280;15815;46.760;19.604;2023-05-29T06:57:19;100297.66;;;19.26;86.77
28628;BME280;15815;46.760;19.604;2023-05-29T06:59:45;100302.28;;;19.32;86.36
28628;BME280;15815;46.760;19.604;2023-05-29T07:02:15;100283.56;;;19.22;85.79
28628;BME280;15815;46.760;19.604;2023-05-29T07:04:40;100300.41;;;19.38;85.30
28628;BME280;15815;46.760;19.604;2023-05-29T07:07:06;100286.13;;;19.29;85.03
28628;BME280;15815;46.760;19.604;2023-05-29T07:09:31;100294.56;;;19.42;84.60
28628;BME280;15815;46.760;19.604;2023-05-29T07:11:57;100293.00;;;19.41;84.30
28628;BME280;15815;46.760;19.604;2023-05-29T07:14:23;100307.06;;;19.57;83.78
28628;BME280;15815;46.760;19.604;2023-05-29T07:16:48;100291.34;;;19.53;83.67
28628;BME280;15815;46.760;19.604;2023-05-29T07:19:14;100303.94;;;19.64;83.82
28628;BME280;15815;46.760;19.604;2023-05-29T07:21:40;100299.34;;;19.67;82.99
28628;BME280;15815;46.760;19.604;2023-05-29T07:24:05;100310.19;;;19.81;82.76
28628;BME280;15815;46.760;19.604;2023-05-29T07:26:31;100312.09;;;19.84;82.21
28628;BME280;15815;46.760;19.604;2023-05-29T07:28:57;100315.31;;;19.95;82.07
28628;BME280;15815;46.760;19.604;2023-05-29T07:31:24;100308.53;;;20.02;82.28
28628;BME280;15815;46.760;19.604;2023-05-29T07:33:52;100324.91;;;20.20;81.05
28628;BME280;15815;46.760;19.604;2023-05-29T07:36:17;100312.84;;;20.16;80.55
28628;BME280;15815;46.760;19.604;2023-05-29T07:38:43;100326.53;;;20.30;79.97
28628;BME280;15815;46.760;19.604;2023-05-29T07:41:09;100322.06;;;20.20;80.09
28628;BME280;15815;46.760;19.604;2023-05-29T07:43:34;100322.47;;;20.40;80.12
28628;BME280;15815;46.760;19.604;2023-05-29T07:46:00;100322.00;;;20.42;78.93
28628;BME280;15815;46.760;19.604;2023-05-29T07:48:26;100337.69;;;20.46;79.59
28628;BME280;15815;46.760;19.604;2023-05-29T07:50:52;100332.63;;;20.50;79.80
28628;BME280;15815;46.760;19.604;2023-05-29T07:53:17;100354.88;;;20.55;78.66
28628;BME280;15815;46.760;19.604;2023-05-29T07:55:43;100350.13;;;20.61;78.17
28628;BME280;15815;46.760;19.604;2023-05-29T07:58:09;100338.69;;;20.61;78.11
28628;BME280;15815;46.760;19.604;2023-05-29T08:00:35;100344.09;;;20.68;77.68
28628;BME280;15815;46.760;19.604;2023-05-29T08:03:00;100358.88;;;20.85;77.33
28628;BME280;15815;46.760;19.604;2023-05-29T08:05:26;100363.16;;;20.99;76.73
28628;BME280;15815;46.760;19.604;2023-05-29T08:07:52;100339.34;;;20.93;76.98
28628;BME280;15815;46.760;19.604;2023-05-29T08:10:17;100354.59;;;21.08;75.46
28628;BME280;15815;46.760;19.604;2023-05-29T08:12:43;100351.75;;;20.99;75.15
28628;BME280;15815;46.760;19.604;2023-05-29T08:15:09;100356.66;;;20.98;74.30
28628;BME280;15815;46.760;19.604;2023-05-29T08:17:35;100349.81;;;21.05;73.96
28628;BME280;15815;46.760;19.604;2023-05-29T08:20:01;100346.66;;;21.03;74.46
28628;BME280;15815;46.760;19.604;2023-05-29T08:22:30;100356.03;;;20.94;74.28
28628;BME280;15815;46.760;19.604;2023-05-29T08:24:56;100380.00;;;21.06;74.58
28628;BME280;15815;46.760;19.604;2023-05-29T08:27:24;100375.56;;;21.14;74.22
28628;BME280;15815;46.760;19.604;2023-05-29T08:29:50;100373.66;;;21.11;73.84
28628;BME280;15815;46.760;19.604;2023-05-29T08:32:16;100367.75;;;21.06;73.04
28628;BME280;15815;46.760;19.604;2023-05-29T08:34:42;100361.56;;;20.98;73.03
28628;BME280;15815;46.760;19.604;2023-05-29T08:37:07;100362.69;;;21.01;72.49
28628;BME280;15815;46.760;19.604;2023-05-29T08:39:33;100381.91;;;21.18;72.69
28628;BME280;15815;46.760;19.604;2023-05-29T08:42:07;100368.25;;;21.13;72.67
28628;BME280;15815;46.760;19.604;2023-05-29T08:44:35;100374.91;;;21.01;72.58
28628;BME280;15815;46.760;19.604;2023-05-29T08:47:03;100378.75;;;21.16;71.74
28628;BME280;15815;46.760;19.604;2023-05-29T08:49:41;100376.66;;;21.08;71.90
28628;BME280;15815;46.760;19.604;2023-05-29T08:52:15;100381.91;;;21.18;71.65
28628;BME280;15815;46.760;19.604;2023-05-29T08:54:41;100379.53;;;21.17;71.99
28628;BME280;15815;46.760;19.604;2023-05-29T08:57:07;100383.97;;;21.18;71.81
28628;BME280;15815;46.760;19.604;2023-05-29T08:59:32;100385.09;;;21.29;71.26
28628;BME280;15815;46.760;19.604;2023-05-29T09:01:58;100371.91;;;21.32;71.52
28628;BME280;15815;46.760;19.604;2023-05-29T09:04:24;100366.38;;;21.38;71.45
28628;BME280;15815;46.760;19.604;2023-05-29T09:06:50;100360.94;;;21.49;71.16
28628;BME280;15815;46.760;19.604;2023-05-29T09:09:16;100378.41;;;21.60;71.53
28628;BME280;15815;46.760;19.604;2023-05-29T09:11:43;100369.19;;;21.56;72.09
28628;BME280;15815;46.760;19.604;2023-05-29T09:14:39;100376.00;;;21.77;72.56
28628;BME280;15815;46.760;19.604;2023-05-29T09:17:06;100382.16;;;21.94;72.76
28628;BME280;15815;46.760;19.604;2023-05-29T09:19:33;100393.38;;;22.15;71.31
28628;BME280;15815;46.760;19.604;2023-05-29T09:22:04;100381.56;;;22.32;70.45
28628;BME280;15815;46.760;19.604;2023-05-29T09:24:32;100390.88;;;22.41;69.04
28628;BME280;15815;46.760;19.604;2023-05-29T09:27:02;100392.38;;;22.61;69.23
28628;BME280;15815;46.760;19.604;2023-05-29T09:29:31;100388.75;;;22.84;69.18
28628;BME280;15815;46.760;19.604;2023-05-29T09:31:57;100394.97;;;23.06;69.64
28628;BME280;15815;46.760;19.604;2023-05-29T09:34:24;100381.94;;;23.05;68.49
28628;BME280;15815;46.760;19.604;2023-05-29T09:36:50;100386.91;;;22.96;68.59
28628;BME280;15815;46.760;19.604;2023-05-29T09:39:16;100386.50;;;23.12;68.57
28628;BME280;15815;46.760;19.604;2023-05-29T09:41:43;100391.91;;;23.10;67.34
28628;BME280;15815;46.760;19.604;2023-05-29T09:44:13;100399.78;;;23.00;66.39
28628;BME280;15815;46.760;19.604;2023-05-29T09:46:42;100397.69;;;23.01;65.48
28628;BME280;15815;46.760;19.604;2023-05-29T09:49:11;100384.53;;;22.94;66.35
28628;BME280;15815;46.760;19.604;2023-05-29T09:51:37;100373.88;;;22.95;65.16
28628;BME280;15815;46.760;19.604;2023-05-29T09:54:17;100392.41;;;23.08;64.72
28628;BME280;15815;46.760;19.604;2023-05-29T09:56:44;100394.19;;;23.06;63.83
28628;BME280;15815;46.760;19.604;2023-05-29T09:59:11;100398.38;;;23.20;62.66
28628;BME280;15815;46.760;19.604;2023-05-29T10:01:44;100395.66;;;23.40;62.22
28628;BME280;15815;46.760;19.604;2023-05-29T10:04:10;100388.09;;;23.28;63.27
28628;BME280;15815;46.760;19.604;2023-05-29T10:06:37;100383.00;;;23.32;62.46
28628;BME280;15815;46.760;19.604;2023-05-29T10:09:05;100395.19;;;23.18;63.25
28628;BME280;15815;46.760;19.604;2023-05-29T10:11:34;100386.16;;;23.34;61.63
28628;BME280;15815;46.760;19.604;2023-05-29T10:14:02;100373.59;;;23.46;62.63
28628;BME280;15815;46.760;19.604;2023-05-29T10:16:30;100388.78;;;23.61;62.08
28628;BME280;15815;46.760;19.604;2023-05-29T10:18:57;100382.66;;;23.68;62.31
28628;BME280;15815;46.760;19.604;2023-05-29T10:21:27;100386.19;;;24.22;61.01
28628;BME280;15815;46.760;19.604;2023-05-29T10:23:54;100375.41;;;24.67;60.48
28628;BME280;15815;46.760;19.604;2023-05-29T10:26:25;100366.53;;;25.06;60.59
28628;BME280;15815;46.760;19.604;2023-05-29T10:29:13;100368.88;;;25.48;58.34
28628;BME280;15815;46.760;19.604;2023-05-29T10:37:29;100371.59;;;25.83;56.62
28628;BME280;15815;46.760;19.604;2023-05-29T10:40:04;100377.06;;;25.81;55.91
28628;BME280;15815;46.760;19.604;2023-05-29T10:42:47;100363.25;;;26.54;55.63
28628;BME280;15815;46.760;19.604;2023-05-29T10:47:56;100370.47;;;27.34;53.18
28628;BME280;15815;46.760;19.604;2023-05-29T10:50:43;100359.53;;;26.90;51.66
28628;BME280;15815;46.760;19.604;2023-05-29T10:53:17;100357.44;;;26.91;51.54
28628;BME280;15815;46.760;19.604;2023-05-29T10:55:44;100348.25;;;26.87;51.18
28628;BME280;15815;46.760;19.604;2023-05-29T10:58:14;100344.84;;;26.88;50.69
28628;BME280;15815;46.760;19.604;2023-05-29T11:00:44;100356.13;;;26.97;50.76
28628;BME280;15815;46.760;19.604;2023-05-29T11:03:10;100349.38;;;27.00;51.86
28628;BME280;15815;46.760;19.604;2023-05-29T11:06:17;100356.66;;;26.96;49.72
28628;BME280;15815;46.760;19.604;2023-05-29T11:08:58;100351.66;;;26.91;50.52
28628;BME280;15815;46.760;19.604;2023-05-29T11:13:53;100343.25;;;26.87;51.53
28628;BME280;15815;46.760;19.604;2023-05-29T11:18:51;100348.16;;;27.29;50.68
28628;BME280;15815;46.760;19.604;2023-05-29T11:23:58;100329.69;;;26.99;52.45
28628;BME280;15815;46.760;19.604;2023-05-29T11:26:27;100329.84;;;27.44;51.92
28628;BME280;15815;46.760;19.604;2023-05-29T11:28:53;100328.41;;;27.11;52.36
28628;BME280;15815;46.760;19.604;2023-05-29T11:31:20;100312.53;;;26.78;52.13
28628;BME280;15815;46.760;19.604;2023-05-29T11:33:50;100331.88;;;27.26;52.36
28628;BME280;15815;46.760;19.604;2023-05-29T11:36:21;100323.75;;;27.30;47.76
28628;BME280;15815;46.760;19.604;2023-05-29T11:38:47;100318.50;;;27.23;45.99
28628;BME280;15815;46.760;19.604;2023-05-29T11:41:13;100323.69;;;27.08;46.72
28628;BME280;15815;46.760;19.604;2023-05-29T11:43:39;100300.22;;;26.78;49.10
28628;BME280;15815;46.760;19.604;2023-05-29T11:46:18;100307.41;;;27.05;47.06
28628;BME280;15815;46.760;19.604;2023-05-29T11:48:48;100315.28;;;27.10;46.53
28628;BME280;15815;46.760;19.604;2023-05-29T11:51:14;100303.81;;;27.27;46.52
28628;BME280;15815;46.760;19.604;2023-05-29T11:53:41;100307.75;;;27.24;46.05
28628;BME280;15815;46.760;19.604;2023-05-29T11:56:10;100291.75;;;27.28;47.48
28628;BME280;15815;46.760;19.604;2023-05-29T11:58:38;100297.56;;;27.39;48.25
28628;BME280;15815;46.760;19.604;2023-05-29T12:01:04;100285.97;;;27.17;47.10
28628;BME280;15815;46.760;19.604;2023-05-29T12:03:30;100275.75;;;27.33;47.81
28628;BME280;15815;46.760;19.604;2023-05-29T12:05:56;100273.66;;;27.22;48.48
28628;BME280;15815;46.760;19.604;2023-05-29T12:08:22;100284.19;;;27.53;47.63
28628;BME280;15815;46.760;19.604;2023-05-29T12:10:49;100256.06;;;27.20;46.44
28628;BME280;15815;46.760;19.604;2023-05-29T12:13:15;100275.19;;;27.12;46.39
28628;BME280;15815;46.760;19.604;2023-05-29T12:15:41;100272.84;;;27.27;45.87
28628;BME280;15815;46.760;19.604;2023-05-29T12:18:07;100264.09;;;26.94;44.88
28628;BME280;15815;46.760;19.604;2023-05-29T12:20:33;100258.13;;;27.03;45.48
28628;BME280;15815;46.760;19.604;2023-05-29T12:23:00;100264.19;;;27.16;45.14
28628;BME280;15815;46.760;19.604;2023-05-29T12:25:33;100254.50;;;27.19;45.39
28628;BME280;15815;46.760;19.604;2023-05-29T12:27:59;100270.50;;;27.31;44.81
28628;BME280;15815;46.760;19.604;2023-05-29T12:30:25;100259.78;;;27.49;45.13
28628;BME280;15815;46.760;19.604;2023-05-29T12:32:52;100246.63;;;27.31;43.99
28628;BME280;15815;46.760;19.604;2023-05-29T12:35:23;100263.41;;;27.38;44.82
28628;BME280;15815;46.760;19.604;2023-05-29T12:37:59;100253.91;;;27.04;44.05
28628;BME280;15815;46.760;19.604;2023-05-29T12:40:27;100245.84;;;27.14;46.64
28628;BME280;15815;46.760;19.604;2023-05-29T12:42:59;100249.50;;;27.31;47.05
28628;BME280;15815;46.760;19.604;2023-05-29T12:45:27;100257.91;;;27.29;44.38
28628;BME280;15815;46.760;19.604;2023-05-29T12:47:54;100268.94;;;27.36;43.61
28628;BME280;15815;46.760;19.604;2023-05-29T12:53:04;100262.34;;;27.13;41.63
28628;BME280;15815;46.760;19.604;2023-05-29T12:55:33;100258.66;;;27.07;41.35
28628;BME280;15815;46.760;19.604;2023-05-29T12:57:59;100253.63;;;26.96;41.91
28628;BME280;15815;46.760;19.604;2023-05-29T13:00:25;100250.41;;;26.77;41.94
28628;BME280;15815;46.760;19.604;2023-05-29T13:02:52;100240.94;;;26.60;41.45
28628;BME280;15815;46.760;19.604;2023-05-29T13:05:18;100259.44;;;26.42;41.61